createdAt,value
2023-01-09T00:00:08.926Z,59.17
2023-01-09T00:01:26.579Z,65.05
2023-01-09T00:02:28.357Z,75.30
2023-01-09T00:03:30.135Z,60.35
2023-01-09T00:04:32.228Z,64.75
2023-01-09T00:05:33.981Z,64.20
2023-01-09T00:06:36.451Z,63.50
2023-01-09T00:07:38.410Z,53.53
2023-01-09T00:08:40.275Z,60.85
2023-01-09T00:09:41.990Z,61.78
2023-01-09T00:10:43.739Z,58.60
2023-01-09T00:11:45.483Z,51.58
2023-01-09T00:12:47.214Z,60.92
2023-01-09T00:13:50.106Z,59.58
2023-01-09T00:14:52.533Z,64.47
2023-01-09T00:15:54.292Z,53.85
2023-01-09T00:16:56.328Z,59.70
2023-01-09T00:17:58.051Z,62.73
2023-01-09T00:18:59.821Z,55.92
2023-01-09T00:20:01.623Z,67.63
2023-01-09T00:21:05.801Z,60.60
2023-01-09T00:22:07.530Z,57.88
2023-01-09T00:23:09.211Z,61.50
2023-01-09T00:24:10.961Z,57.22
2023-01-09T00:25:12.848Z,55.28
2023-01-09T00:26:18.141Z,59.03
2023-01-09T00:27:19.930Z,52.63
2023-01-09T00:28:21.672Z,59.73
2023-01-09T00:29:23.402Z,53.45
2023-01-09T00:30:25.414Z,52.15
2023-01-09T00:31:27.331Z,53.97
2023-01-09T00:32:29.315Z,55.30
2023-01-09T00:33:37.115Z,56.08
2023-01-09T00:34:39.135Z,61.58
2023-01-09T00:35:40.991Z,57.28
2023-01-09T00:36:42.746Z,64.28
2023-01-09T00:37:45.152Z,57.88
2023-01-09T00:38:46.929Z,58.37
2023-01-09T00:39:48.867Z,46.00
2023-01-09T00:40:51.565Z,55.55
2023-01-09T00:41:56.243Z,44.33
2023-01-09T00:42:58.269Z,47.70
2023-01-09T00:44:06.541Z,55.08
2023-01-09T00:45:11.736Z,42.85
2023-01-09T00:46:15.400Z,42.33
2023-01-09T00:47:41.722Z,62.10
2023-01-09T00:48:47.845Z,52.28
2023-01-09T00:49:51.882Z,51.83
2023-01-09T00:50:57.864Z,52.88
2023-01-09T00:52:00.391Z,46.53
2023-01-09T00:53:09.211Z,45.17
2023-01-09T00:54:14.860Z,52.55
2023-01-09T00:55:17.284Z,63.40
2023-01-09T00:56:20.955Z,54.40
2023-01-09T00:57:22.642Z,54.05
2023-01-09T00:58:24.695Z,52.25
2023-01-09T00:59:28.114Z,66.82
2023-01-09T01:00:29.835Z,50.97
2023-01-09T01:01:31.780Z,48.88
2023-01-09T01:02:33.684Z,47.05
2023-01-09T01:03:35.500Z,48.90
2023-01-09T01:04:37.239Z,45.03
2023-01-09T01:05:38.935Z,45.22
2023-01-09T01:06:40.655Z,48.08
2023-01-09T01:07:42.390Z,41.63
2023-01-09T01:08:45.914Z,66.10
2023-01-09T01:09:47.563Z,43.97
2023-01-09T01:10:49.653Z,48.23
2023-01-09T01:11:51.400Z,49.05
2023-01-09T01:12:53.915Z,56.33
2023-01-09T01:13:56.340Z,48.97
2023-01-09T01:14:58.320Z,51.90
2023-01-09T01:16:00.034Z,50.80
2023-01-09T01:17:02.027Z,51.45
2023-01-09T01:18:04.097Z,42.17
2023-01-09T01:19:05.979Z,44.20
2023-01-09T01:20:14.874Z,51.25
2023-01-09T01:21:17.214Z,46.67
2023-01-09T01:22:19.099Z,51.10
2023-01-09T01:23:20.884Z,45.95
2023-01-09T01:24:22.863Z,47.35
2023-01-09T01:25:24.677Z,43.60
2023-01-09T01:26:26.465Z,45.88
2023-01-09T01:27:28.964Z,46.08
2023-01-09T01:28:30.681Z,49.08
2023-01-09T01:29:32.387Z,52.35
2023-01-09T01:30:37.811Z,39.33
2023-01-09T01:31:40.006Z,42.23
2023-01-09T01:32:42.097Z,41.75
2023-01-09T01:33:43.743Z,42.30
2023-01-09T01:34:47.542Z,44.17
2023-01-09T01:35:49.534Z,43.97
2023-01-09T01:36:51.230Z,36.63
2023-01-09T01:37:53.145Z,34.28
2023-01-09T01:38:54.965Z,38.58
2023-01-09T01:39:56.637Z,49.22
2023-01-09T01:40:58.520Z,47.58
2023-01-09T01:42:00.296Z,42.93
2023-01-09T01:43:02.044Z,40.78
2023-01-09T01:44:45.115Z,47.90
2023-01-09T01:45:46.897Z,40.70
2023-01-09T01:46:48.561Z,42.95
2023-01-09T01:47:50.253Z,37.25
2023-01-09T01:49:18.349Z,44.40
2023-01-09T01:50:36.799Z,39.88
2023-01-09T01:51:44.950Z,37.83
2023-01-09T01:52:57.442Z,44.22
2023-01-09T01:54:03.326Z,47.20
2023-01-09T01:55:08.461Z,43.42
2023-01-09T01:56:20.891Z,38.08
2023-01-09T01:57:22.895Z,38.97
2023-01-09T01:58:26.224Z,45.95
2023-01-09T01:59:44.227Z,41.83
2023-01-09T02:00:47.785Z,32.45
2023-01-09T02:01:58.184Z,39.97
2023-01-09T02:03:01.947Z,31.50
2023-01-09T02:04:04.568Z,36.95
2023-01-09T02:05:06.795Z,38.83
2023-01-09T02:06:09.701Z,39.35
2023-01-09T02:07:11.581Z,40.67
2023-01-09T02:08:14.007Z,38.17
2023-01-09T02:09:16.914Z,38.00
2023-01-09T02:10:19.575Z,39.13
2023-01-09T02:11:21.700Z,35.70
2023-01-09T02:12:25.973Z,40.88
2023-01-09T02:14:23.688Z,39.70
2023-01-09T02:15:28.089Z,29.23
2023-01-09T02:16:45.016Z,35.20
2023-01-09T02:18:24.861Z,34.05
2023-01-09T02:20:04.023Z,36.67
2023-01-09T02:21:35.350Z,30.13
2023-01-09T02:22:55.765Z,30.80
2023-01-09T02:24:11.578Z,34.75
2023-01-09T02:25:43.584Z,33.78
2023-01-09T02:27:00.351Z,35.95
2023-01-09T02:28:11.103Z,28.08
2023-01-09T02:29:34.543Z,29.45
2023-01-09T02:30:44.495Z,34.67
2023-01-09T02:32:23.784Z,30.88
2023-01-09T02:33:25.410Z,28.77
2023-01-09T02:34:42.867Z,30.08
2023-01-09T02:36:02.074Z,34.45
2023-01-09T02:37:39.341Z,31.25
2023-01-09T02:39:02.436Z,28.70
2023-01-09T02:40:25.868Z,29.90
2023-01-09T02:41:47.746Z,28.17
2023-01-09T02:42:50.829Z,33.28
2023-01-09T02:44:16.970Z,36.33
2023-01-09T02:45:18.826Z,27.58
2023-01-09T02:46:22.644Z,29.98
2023-01-09T02:47:24.475Z,32.35
2023-01-09T02:48:26.354Z,33.05
2023-01-09T02:49:28.593Z,30.23
2023-01-09T02:50:42.259Z,31.05
2023-01-09T02:52:01.123Z,34.50
2023-01-09T02:53:56.592Z,34.30
2023-01-09T02:55:26.561Z,31.38
2023-01-09T02:56:49.443Z,27.57
2023-01-09T02:58:29.885Z,25.35
2023-01-09T02:59:54.115Z,21.80
2023-01-09T03:01:15.185Z,22.20
2023-01-09T03:02:25.904Z,31.33
2023-01-09T03:03:52.758Z,28.15
2023-01-09T03:05:21.366Z,30.20
2023-01-09T03:06:44.141Z,27.30
2023-01-09T03:08:04.694Z,27.52
2023-01-09T03:09:20.423Z,35.83
2023-01-09T03:10:48.045Z,31.27
2023-01-09T03:12:01.717Z,33.92
2023-01-09T03:13:04.320Z,35.35
2023-01-09T03:14:14.803Z,34.47
2023-01-09T03:15:20.911Z,38.28
2023-01-09T03:16:31.590Z,38.92
2023-01-09T03:17:40.548Z,41.00
2023-01-09T03:18:44.166Z,40.00
2023-01-09T03:19:46.799Z,35.90
2023-01-09T03:20:50.055Z,39.35
2023-01-09T03:21:53.289Z,37.77
2023-01-09T03:22:57.136Z,37.38
2023-01-09T03:24:01.547Z,35.47
2023-01-09T03:25:03.329Z,30.75
2023-01-09T03:26:05.253Z,36.35
2023-01-09T03:27:08.526Z,42.60
2023-01-09T03:28:27.034Z,37.80
2023-01-09T03:29:29.625Z,32.42
2023-01-09T03:30:33.161Z,40.35
2023-01-09T03:31:35.097Z,39.35
2023-01-09T03:32:36.820Z,34.20
2023-01-09T03:33:38.514Z,41.03
2023-01-09T03:34:40.335Z,37.88
2023-01-09T03:35:42.050Z,35.05
2023-01-09T03:36:43.762Z,31.15
2023-01-09T03:37:45.529Z,30.17
2023-01-09T03:38:47.779Z,32.58
2023-01-09T03:39:49.567Z,36.03
2023-01-09T03:40:51.276Z,39.90
2023-01-09T03:41:53.028Z,42.95
2023-01-09T03:42:54.647Z,38.07
2023-01-09T03:43:56.342Z,50.67
2023-01-09T03:44:58.127Z,37.70
2023-01-09T03:46:00.387Z,40.03
2023-01-09T03:47:02.241Z,39.05
2023-01-09T03:48:04.229Z,38.42
2023-01-09T03:49:06.046Z,36.05
2023-01-09T03:50:08.553Z,31.75
2023-01-09T03:51:10.586Z,30.20
2023-01-09T03:52:12.340Z,31.08
2023-01-09T03:53:14.517Z,27.23
2023-01-09T03:54:16.239Z,34.10
2023-01-09T03:55:18.064Z,29.25
2023-01-09T03:56:20.055Z,32.05
2023-01-09T03:57:21.835Z,30.60
2023-01-09T03:58:24.918Z,27.25
2023-01-09T03:59:26.764Z,38.53
2023-01-09T04:00:28.555Z,34.03
2023-01-09T04:01:30.341Z,31.42
2023-01-09T04:02:32.058Z,30.95
2023-01-09T04:03:33.846Z,33.40
2023-01-09T04:04:35.635Z,34.08
2023-01-09T04:05:37.382Z,29.50
2023-01-09T04:06:39.026Z,30.85
2023-01-09T04:07:40.839Z,30.15
2023-01-09T04:08:42.600Z,28.48
2023-01-09T04:09:44.350Z,28.52
2023-01-09T04:10:47.410Z,31.02
2023-01-09T04:11:49.450Z,30.08
2023-01-09T04:12:51.348Z,26.13
2023-01-09T04:13:53.155Z,29.33
2023-01-09T04:14:54.888Z,26.45
2023-01-09T04:15:56.610Z,41.72
2023-01-09T04:16:58.358Z,34.90
2023-01-09T04:18:00.046Z,28.23
2023-01-09T04:19:01.725Z,28.38
2023-01-09T04:20:04.479Z,24.48
2023-01-09T04:21:06.121Z,28.55
2023-01-09T04:22:07.829Z,26.23
2023-01-09T04:23:09.641Z,25.27
2023-01-09T04:24:11.446Z,27.63
2023-01-09T04:25:13.260Z,31.65
2023-01-09T04:26:15.017Z,27.38
2023-01-09T04:27:16.704Z,32.38
2023-01-09T04:28:18.650Z,29.55
2023-01-09T04:29:20.419Z,28.85
2023-01-09T04:30:22.071Z,28.08
2023-01-09T04:31:23.862Z,31.45
2023-01-09T04:32:25.728Z,34.25
2023-01-09T04:33:27.406Z,32.38
2023-01-09T04:34:29.145Z,28.60
2023-01-09T04:35:30.973Z,27.65
2023-01-09T04:36:32.743Z,32.13
2023-01-09T04:37:34.527Z,32.58
2023-01-09T04:38:36.245Z,29.88
2023-01-09T04:39:38.103Z,25.23
2023-01-09T04:40:39.814Z,29.75
2023-01-09T04:41:41.497Z,23.50
2023-01-09T04:42:43.384Z,25.92
2023-01-09T04:43:45.214Z,23.13
2023-01-09T04:44:47.014Z,31.60
2023-01-09T04:45:48.815Z,33.42
2023-01-09T04:46:50.669Z,33.33
2023-01-09T04:47:52.359Z,34.33
2023-01-09T04:48:54.166Z,34.25
2023-01-09T04:49:55.848Z,41.90
2023-01-09T04:50:57.632Z,32.25
2023-01-09T04:51:59.465Z,37.05
2023-01-09T04:53:01.177Z,30.58
2023-01-09T04:54:02.986Z,28.83
2023-01-09T04:55:05.212Z,30.63
2023-01-09T04:56:07.201Z,27.27
2023-01-09T04:57:08.908Z,29.75
2023-01-09T04:58:10.617Z,31.45
2023-01-09T04:59:12.632Z,29.85
2023-01-09T05:00:14.781Z,26.58
2023-01-09T05:01:16.674Z,33.05
2023-01-09T05:02:18.772Z,32.67
2023-01-09T05:03:20.489Z,24.23
2023-01-09T05:04:22.256Z,27.98
2023-01-09T05:05:24.096Z,28.07
2023-01-09T05:06:25.779Z,22.23
2023-01-09T05:07:27.623Z,29.98
2023-01-09T05:08:29.326Z,30.38
2023-01-09T05:09:31.107Z,27.80
2023-01-09T05:10:32.904Z,24.10
2023-01-09T05:11:34.724Z,23.88
2023-01-09T05:12:36.602Z,23.17
2023-01-09T05:13:38.337Z,31.73
2023-01-09T05:14:40.098Z,27.30
2023-01-09T05:15:41.719Z,30.20
2023-01-09T05:16:43.517Z,26.02
2023-01-09T05:17:45.428Z,24.20
2023-01-09T05:18:47.175Z,27.70
2023-01-09T05:19:48.908Z,25.85
2023-01-09T05:20:50.761Z,33.88
2023-01-09T05:21:52.425Z,27.23
2023-01-09T05:22:54.173Z,27.13
2023-01-09T05:23:56.085Z,27.83
2023-01-09T05:25:00.274Z,29.77
2023-01-09T05:26:02.313Z,26.70
2023-01-09T05:27:04.115Z,28.52
2023-01-09T05:28:06.168Z,22.25
2023-01-09T05:29:07.897Z,26.88
2023-01-09T05:30:11.102Z,26.35
2023-01-09T05:31:14.076Z,31.35
2023-01-09T05:32:15.764Z,28.67
2023-01-09T05:33:17.558Z,29.02
2023-01-09T05:34:19.474Z,37.60
2023-01-09T05:35:23.211Z,30.75
2023-01-09T05:36:25.174Z,26.27
2023-01-09T05:37:26.923Z,27.30
2023-01-09T05:38:28.565Z,25.35
2023-01-09T05:39:30.202Z,24.45
2023-01-09T05:40:38.562Z,21.67
2023-01-09T05:41:41.729Z,22.60
2023-01-09T05:42:44.175Z,24.80
2023-01-09T05:43:45.884Z,24.02
2023-01-09T05:44:47.685Z,21.40
2023-01-09T05:45:49.595Z,25.98
2023-01-09T05:46:51.363Z,22.23
2023-01-09T05:47:53.500Z,27.30
2023-01-09T05:48:55.190Z,23.88
2023-01-09T05:49:56.897Z,29.00
2023-01-09T05:50:58.638Z,26.92
2023-01-09T05:52:00.327Z,27.85
2023-01-09T05:53:02.031Z,28.60
2023-01-09T05:54:03.866Z,28.38
2023-01-09T05:55:07.101Z,39.03
2023-01-09T05:56:10.712Z,42.67
2023-01-09T05:57:13.206Z,31.87
2023-01-09T05:58:14.909Z,26.25
2023-01-09T05:59:16.710Z,29.80
2023-01-09T06:00:19.101Z,31.45
2023-01-09T06:01:23.485Z,34.65
2023-01-09T06:02:25.771Z,33.60
2023-01-09T06:03:27.573Z,37.85
2023-01-09T06:04:29.305Z,34.30
2023-01-09T06:05:31.005Z,30.77
2023-01-09T06:06:32.864Z,33.35
2023-01-09T06:07:34.680Z,26.63
2023-01-09T06:08:36.440Z,34.00
2023-01-09T06:09:38.176Z,36.53
2023-01-09T06:10:39.877Z,33.92
2023-01-09T06:11:41.582Z,36.60
2023-01-09T06:12:47.954Z,44.20
2023-01-09T06:13:49.665Z,33.58
2023-01-09T06:14:51.415Z,33.55
2023-01-09T06:15:53.494Z,38.88
2023-01-09T06:16:55.461Z,39.00
2023-01-09T06:17:57.162Z,32.57
2023-01-09T06:18:58.854Z,38.35
2023-01-09T06:20:00.670Z,40.50
2023-01-09T06:21:02.386Z,32.30
2023-01-09T06:22:04.079Z,36.75
2023-01-09T06:23:05.789Z,38.35
2023-01-09T06:24:07.848Z,39.55
2023-01-09T06:25:09.920Z,38.47
2023-01-09T06:26:11.610Z,37.13
2023-01-09T06:27:13.323Z,33.95
2023-01-09T06:28:15.033Z,45.07
2023-01-09T06:29:16.886Z,40.13
2023-01-09T06:30:19.812Z,43.92
2023-01-09T06:31:23.117Z,36.78
2023-01-09T06:32:24.901Z,38.47
2023-01-09T06:33:26.643Z,41.45
2023-01-09T06:34:28.363Z,42.30
2023-01-09T06:35:30.059Z,42.83
2023-01-09T06:36:31.697Z,40.17
2023-01-09T06:37:33.407Z,51.40
2023-01-09T06:38:35.332Z,46.10
2023-01-09T06:39:37.201Z,50.60
2023-01-09T06:40:39.193Z,44.17
2023-01-09T06:41:41.665Z,39.88
2023-01-09T06:42:44.963Z,49.80
2023-01-09T06:43:46.682Z,40.72
2023-01-09T06:44:48.394Z,47.85
2023-01-09T06:45:50.232Z,47.20
2023-01-09T06:46:52.098Z,46.63
2023-01-09T06:47:53.849Z,41.05
2023-01-09T06:48:55.577Z,44.73
2023-01-09T06:49:57.290Z,43.50
2023-01-09T06:50:59.056Z,45.80
2023-01-09T06:52:00.779Z,49.60
2023-01-09T06:53:02.827Z,46.10
2023-01-09T06:54:04.627Z,51.65
2023-01-09T06:55:07.487Z,59.47
2023-01-09T06:56:09.244Z,54.70
2023-01-09T06:57:10.922Z,56.78
2023-01-09T06:58:12.908Z,59.00
2023-01-09T06:59:14.909Z,50.23
2023-01-09T07:00:17.095Z,50.38
2023-01-09T07:01:18.975Z,49.63
2023-01-09T07:02:22.259Z,56.15
2023-01-09T07:03:24.064Z,47.92
2023-01-09T07:04:25.996Z,55.97
2023-01-09T07:05:27.785Z,70.80
2023-01-09T07:06:29.593Z,66.55
2023-01-09T07:07:31.435Z,65.00
2023-01-09T07:08:33.302Z,69.82
2023-01-09T07:09:35.157Z,70.67
2023-01-09T07:10:36.913Z,61.28
2023-01-09T07:11:39.089Z,61.03
2023-01-09T07:12:40.837Z,56.10
2023-01-09T07:13:42.700Z,56.42
2023-01-09T07:14:44.411Z,55.65
2023-01-09T07:15:46.221Z,51.90
2023-01-09T07:16:48.019Z,53.92
2023-01-09T07:17:51.978Z,50.63
2023-01-09T07:18:53.685Z,49.95
2023-01-09T07:19:55.522Z,41.57
2023-01-09T07:20:57.373Z,51.47
2023-01-09T07:21:59.272Z,49.95
2023-01-09T07:23:01.000Z,41.45
2023-01-09T07:24:02.765Z,37.33
2023-01-09T07:25:05.036Z,45.92
2023-01-09T07:26:06.764Z,39.75
2023-01-09T07:27:08.476Z,45.75
2023-01-09T07:28:10.240Z,48.85
2023-01-09T07:29:11.946Z,49.72
2023-01-09T07:30:14.300Z,39.80
2023-01-09T07:31:16.119Z,45.33
2023-01-09T07:32:17.931Z,44.75
2023-01-09T07:33:20.438Z,50.83
2023-01-09T07:34:22.185Z,56.58
2023-01-09T07:35:23.918Z,49.75
2023-01-09T07:36:25.703Z,51.90
2023-01-09T07:37:27.437Z,50.63
2023-01-09T07:38:29.122Z,50.55
2023-01-09T07:39:30.819Z,55.22
2023-01-09T07:40:32.562Z,55.03
2023-01-09T07:41:34.356Z,58.28
2023-01-09T07:42:36.142Z,55.38
2023-01-09T07:43:39.377Z,50.42
2023-01-09T07:44:41.083Z,42.88
2023-01-09T07:45:42.788Z,45.75
2023-01-09T07:46:44.611Z,45.80
2023-01-09T07:47:46.545Z,45.20
2023-01-09T07:48:48.366Z,46.17
2023-01-09T07:49:50.106Z,45.22
2023-01-09T07:50:51.851Z,53.43
2023-01-09T07:51:54.650Z,63.03
2023-01-09T07:52:56.420Z,68.68
2023-01-09T07:53:58.140Z,67.45
2023-01-09T07:54:59.797Z,70.38
2023-01-09T07:56:01.673Z,65.97
2023-01-09T07:57:03.970Z,54.42
2023-01-09T07:58:05.864Z,61.65
2023-01-09T07:59:08.070Z,55.55
2023-01-09T08:00:10.372Z,58.00
2023-01-09T08:01:12.328Z,61.17
2023-01-09T08:02:14.150Z,54.63
2023-01-09T08:03:15.926Z,53.47
2023-01-09T08:04:17.677Z,50.67
2023-01-09T08:05:19.993Z,45.72
2023-01-09T08:06:21.797Z,50.10
2023-01-09T08:07:23.794Z,49.38
2023-01-09T08:08:25.805Z,53.95
2023-01-09T08:09:27.466Z,52.10
2023-01-09T08:10:29.201Z,57.65
2023-01-09T08:11:30.872Z,48.93
2023-01-09T08:12:32.642Z,44.75
2023-01-09T08:13:34.617Z,42.90
2023-01-09T08:14:36.319Z,46.40
2023-01-09T08:15:38.115Z,48.40
2023-01-09T08:16:39.908Z,41.22
2023-01-09T08:17:43.295Z,38.40
2023-01-09T08:18:45.023Z,44.30
2023-01-09T08:19:46.762Z,45.97
2023-01-09T08:20:49.500Z,41.78
2023-01-09T08:21:51.203Z,45.77
2023-01-09T08:22:52.996Z,42.63
2023-01-09T08:23:54.763Z,38.88
2023-01-09T08:24:56.458Z,44.33
2023-01-09T08:25:58.198Z,46.30
2023-01-09T08:27:00.167Z,52.08
2023-01-09T08:28:01.911Z,49.10
2023-01-09T08:29:03.808Z,48.42
2023-01-09T08:30:06.090Z,60.08
2023-01-09T08:31:08.071Z,47.35
2023-01-09T08:32:09.963Z,44.00
2023-01-09T08:33:11.774Z,42.80
2023-01-09T08:34:13.810Z,54.63
2023-01-09T08:35:15.668Z,49.60
2023-01-09T08:36:17.432Z,54.78
2023-01-09T08:37:19.302Z,76.85
2023-01-09T08:38:21.189Z,67.30
2023-01-09T08:39:22.863Z,60.25
2023-01-09T08:40:24.650Z,70.75
2023-01-09T08:41:26.365Z,73.93
2023-01-09T08:42:28.120Z,85.97
2023-01-09T08:43:29.865Z,109.63
2023-01-09T08:44:31.639Z,102.63
2023-01-09T08:45:33.446Z,118.95
2023-01-09T08:46:35.759Z,109.72
2023-01-09T08:47:37.544Z,106.53
2023-01-09T08:48:39.360Z,96.82
2023-01-09T08:49:41.072Z,91.95
2023-01-09T08:50:43.694Z,96.15
2023-01-09T08:51:45.590Z,108.78
2023-01-09T08:52:47.516Z,93.40
2023-01-09T08:53:49.232Z,99.75
2023-01-09T08:54:50.947Z,75.20
2023-01-09T08:55:52.690Z,67.13
2023-01-09T08:56:54.389Z,64.35
2023-01-09T08:57:56.171Z,66.85
2023-01-09T08:58:57.791Z,63.95
2023-01-09T08:59:59.499Z,54.65
2023-01-09T09:01:05.543Z,54.72
2023-01-09T09:02:07.452Z,54.38
2023-01-09T09:03:09.980Z,51.20
2023-01-09T09:04:11.789Z,56.13
2023-01-09T09:05:13.509Z,53.53
2023-01-09T09:06:15.283Z,51.70
2023-01-09T09:07:17.064Z,57.65
2023-01-09T09:08:19.202Z,54.60
2023-01-09T09:09:20.924Z,58.10
2023-01-09T09:10:24.573Z,45.80
2023-01-09T09:11:26.275Z,65.72
2023-01-09T09:12:28.450Z,67.38
2023-01-09T09:13:30.152Z,55.07
2023-01-09T09:14:31.875Z,70.18
2023-01-09T09:15:33.813Z,67.05
2023-01-09T09:16:35.479Z,60.95
2023-01-09T09:17:37.266Z,57.33
2023-01-09T09:18:39.121Z,59.45
2023-01-09T09:19:40.857Z,59.97
2023-01-09T09:20:42.640Z,64.47
2023-01-09T09:21:44.641Z,57.50
2023-01-09T09:22:47.581Z,58.58
2023-01-09T09:23:49.322Z,60.57
2023-01-09T09:24:51.489Z,58.00
2023-01-09T09:25:53.340Z,60.08
2023-01-09T09:26:55.193Z,59.67
2023-01-09T09:27:57.155Z,63.17
2023-01-09T09:28:59.098Z,53.35
2023-01-09T09:30:00.946Z,56.80
2023-01-09T09:31:06.308Z,60.47
2023-01-09T09:32:08.073Z,62.63
2023-01-09T09:33:09.951Z,60.40
2023-01-09T09:34:11.662Z,51.50
2023-01-09T09:35:13.795Z,53.17
2023-01-09T09:36:15.979Z,53.25
2023-01-09T09:37:17.616Z,53.47
2023-01-09T09:38:19.303Z,53.50
2023-01-09T09:39:20.982Z,52.60
2023-01-09T09:40:46.500Z,45.20
2023-01-09T09:42:14.098Z,43.67
2023-01-09T09:43:48.223Z,43.38
2023-01-09T09:44:54.166Z,57.05
2023-01-09T09:46:30.342Z,60.23
2023-01-09T09:47:53.334Z,58.13
2023-01-09T09:48:59.799Z,54.78
2023-01-09T09:50:01.497Z,68.18
2023-01-09T09:51:24.422Z,43.78
2023-01-09T09:52:54.700Z,49.03
2023-01-09T09:54:14.845Z,46.70
2023-01-09T09:55:37.121Z,45.08
2023-01-09T09:56:48.326Z,51.00
2023-01-09T09:57:51.748Z,38.95
2023-01-09T09:59:00.283Z,41.50
2023-01-09T10:00:04.834Z,35.58
2023-01-09T10:01:08.919Z,40.42
2023-01-09T10:02:29.556Z,43.88
2023-01-09T10:03:34.327Z,48.83
2023-01-09T10:04:43.554Z,43.85
2023-01-09T10:05:49.497Z,51.90
2023-01-09T10:06:56.501Z,43.53
2023-01-09T10:08:15.502Z,37.53
2023-01-09T10:09:37.060Z,27.25
2023-01-09T10:10:48.535Z,29.63
2023-01-09T10:12:06.264Z,30.08
2023-01-09T10:13:11.251Z,30.63
2023-01-09T10:14:23.596Z,20.65
2023-01-09T10:15:44.943Z,20.48
2023-01-09T10:17:11.995Z,25.15
2023-01-09T10:18:54.520Z,17.77
2023-01-09T10:20:20.863Z,22.00
2023-01-09T10:21:34.193Z,20.08
2023-01-09T10:22:47.745Z,16.80
2023-01-09T10:24:04.368Z,20.90
2023-01-09T10:25:12.229Z,21.40
2023-01-09T10:26:23.832Z,26.40
2023-01-09T10:27:53.568Z,25.50
2023-01-09T10:29:08.635Z,17.15
2023-01-09T10:30:41.077Z,18.10
2023-01-09T10:32:04.560Z,23.92
2023-01-09T10:33:52.133Z,17.42
2023-01-09T10:35:14.290Z,14.45
2023-01-09T10:36:33.870Z,19.75
2023-01-09T10:37:44.905Z,20.40
2023-01-09T10:38:51.114Z,20.38
2023-01-09T10:40:04.223Z,21.75
2023-01-09T10:41:24.345Z,19.65
2023-01-09T10:42:47.668Z,17.05
2023-01-09T10:44:07.527Z,16.05
2023-01-09T10:46:04.218Z,19.38
2023-01-09T10:47:16.648Z,24.88
2023-01-09T10:48:34.537Z,23.73
2023-01-09T10:49:38.576Z,24.20
2023-01-09T10:50:44.451Z,23.53
2023-01-09T10:52:16.222Z,19.75
2023-01-09T10:53:28.895Z,23.08
2023-01-09T10:54:30.759Z,16.55
2023-01-09T10:55:44.646Z,20.20
2023-01-09T10:57:02.427Z,18.25
2023-01-09T10:58:12.119Z,23.48
2023-01-09T10:59:14.185Z,24.45
2023-01-09T11:00:23.493Z,22.65
2023-01-09T11:01:39.465Z,18.00
2023-01-09T11:02:41.556Z,19.47
2023-01-09T11:03:43.491Z,12.93
2023-01-09T11:04:45.265Z,18.50
2023-01-09T11:05:59.501Z,21.67
2023-01-09T11:07:10.729Z,19.08
2023-01-09T11:08:22.604Z,19.65
2023-01-09T11:09:24.719Z,21.55
2023-01-09T11:10:44.756Z,22.92
2023-01-09T11:11:46.533Z,24.90
2023-01-09T11:12:48.378Z,21.70
2023-01-09T11:14:04.740Z,21.63
2023-01-09T11:15:22.690Z,21.45
2023-01-09T11:16:24.433Z,14.30
2023-01-09T11:17:27.728Z,20.67
2023-01-09T11:18:29.564Z,18.23
2023-01-09T11:19:32.960Z,21.52
2023-01-09T11:20:34.871Z,20.13
2023-01-09T11:21:38.689Z,21.45
2023-01-09T11:22:45.865Z,19.58
2023-01-09T11:23:47.595Z,20.88
2023-01-09T11:25:00.492Z,21.87
2023-01-09T11:26:03.533Z,26.20
2023-01-09T11:27:14.193Z,29.42
2023-01-09T11:28:15.917Z,25.80
2023-01-09T11:29:20.159Z,37.70
2023-01-09T11:30:23.262Z,30.73
2023-01-09T11:31:25.229Z,35.47
2023-01-09T11:32:29.665Z,36.35
2023-01-09T11:33:37.313Z,36.08
2023-01-09T11:34:39.099Z,24.73
2023-01-09T11:35:57.375Z,18.90
2023-01-09T11:37:03.668Z,17.48
2023-01-09T11:38:17.428Z,19.80
2023-01-09T11:39:28.647Z,23.42
2023-01-09T11:40:37.561Z,20.15
2023-01-09T11:41:39.742Z,19.60
2023-01-09T11:42:41.536Z,25.58
2023-01-09T11:43:48.341Z,25.10
2023-01-09T11:44:58.917Z,25.08
2023-01-09T11:46:03.789Z,24.40
2023-01-09T11:47:25.664Z,21.77
2023-01-09T11:48:34.981Z,22.10
2023-01-09T11:49:36.754Z,23.33
2023-01-09T11:50:38.442Z,20.00
2023-01-09T11:51:40.435Z,22.60
2023-01-09T11:52:42.253Z,23.67
2023-01-09T11:54:02.525Z,20.05
2023-01-09T11:55:14.086Z,20.70
2023-01-09T11:56:17.770Z,46.33
2023-01-09T11:57:21.616Z,22.42
2023-01-09T11:58:23.568Z,42.40
2023-01-09T11:59:28.708Z,26.98
2023-01-09T12:00:38.581Z,20.23
2023-01-09T12:01:45.993Z,16.50
2023-01-09T12:03:06.777Z,18.15
2023-01-09T12:04:41.090Z,20.33
2023-01-09T12:05:42.855Z,22.50
2023-01-09T12:07:06.328Z,24.77
2023-01-09T12:08:08.161Z,21.35
2023-01-09T12:09:28.470Z,22.20
2023-01-09T12:11:16.669Z,22.37
2023-01-09T12:12:30.105Z,24.27
2023-01-09T12:14:00.613Z,20.38
2023-01-09T12:15:20.926Z,15.25
2023-01-09T12:16:41.831Z,12.57
2023-01-09T12:18:17.769Z,25.20
2023-01-09T12:19:41.959Z,17.70
2023-01-09T12:20:59.126Z,12.32
2023-01-09T12:22:13.136Z,26.05
2023-01-09T12:23:50.974Z,16.65
2023-01-09T12:25:18.791Z,22.63
2023-01-09T12:26:20.422Z,21.42
2023-01-09T12:27:40.666Z,16.77
2023-01-09T12:28:57.429Z,18.42
2023-01-09T12:30:02.441Z,26.98
2023-01-09T12:31:52.462Z,22.75
2023-01-09T12:33:02.392Z,28.10
2023-01-09T12:34:36.524Z,37.47
2023-01-09T12:35:43.748Z,35.65
2023-01-09T12:37:06.289Z,34.58
2023-01-09T12:38:20.238Z,18.23
2023-01-09T12:39:31.178Z,26.52
2023-01-09T12:40:39.058Z,24.20
2023-01-09T12:41:40.805Z,24.90
2023-01-09T12:43:13.245Z,25.08
2023-01-09T12:44:37.022Z,24.80
2023-01-09T12:45:50.823Z,27.23
2023-01-09T12:47:00.322Z,36.65
2023-01-09T12:48:07.634Z,31.83
2023-01-09T12:50:02.969Z,19.15
2023-01-09T12:51:30.069Z,23.33
2023-01-09T12:52:38.566Z,20.63
2023-01-09T12:53:52.651Z,16.90
2023-01-09T12:55:04.081Z,13.50
2023-01-09T12:56:15.663Z,15.73
2023-01-09T12:57:29.189Z,19.70
2023-01-09T12:58:49.362Z,20.88
2023-01-09T12:59:56.443Z,16.73
2023-01-09T13:01:00.798Z,20.88
2023-01-09T13:02:37.789Z,19.77
2023-01-09T13:03:48.185Z,14.33
2023-01-09T13:05:14.847Z,24.02
2023-01-09T13:06:20.641Z,19.90
2023-01-09T13:07:36.221Z,18.08
2023-01-09T13:09:04.822Z,22.20
2023-01-09T13:10:22.376Z,18.67
2023-01-09T13:11:44.782Z,17.90
2023-01-09T13:12:49.215Z,18.45
2023-01-09T13:14:04.942Z,15.07
2023-01-09T13:15:36.486Z,17.45
2023-01-09T13:16:43.432Z,15.00
2023-01-09T13:17:56.492Z,19.10
2023-01-09T13:19:11.248Z,17.45
2023-01-09T13:20:42.353Z,17.70
2023-01-09T13:21:44.720Z,17.85
2023-01-09T13:22:48.820Z,18.20
2023-01-09T13:24:09.542Z,22.95
2023-01-09T13:25:20.978Z,19.95
2023-01-09T13:26:35.039Z,19.70
2023-01-09T13:27:40.296Z,15.05
2023-01-09T13:28:51.329Z,17.93
2023-01-09T13:30:20.177Z,20.63
2023-01-09T13:31:36.752Z,18.33
2023-01-09T13:32:50.836Z,18.23
2023-01-09T13:33:59.292Z,20.55
2023-01-09T13:35:01.428Z,17.35
2023-01-09T13:36:03.970Z,22.27
2023-01-09T13:37:15.895Z,19.23
2023-01-09T13:38:22.219Z,22.50
2023-01-09T13:39:35.384Z,19.88
2023-01-09T13:40:37.259Z,15.43
2023-01-09T13:41:48.364Z,17.15
2023-01-09T13:43:04.388Z,23.48
2023-01-09T13:44:18.171Z,22.20
2023-01-09T13:45:37.780Z,25.38
2023-01-09T13:46:43.300Z,24.70
2023-01-09T13:47:45.442Z,26.50
2023-01-09T13:48:47.509Z,24.73
2023-01-09T13:49:58.407Z,24.02
2023-01-09T13:51:37.277Z,26.67
2023-01-09T13:52:43.385Z,19.53
2023-01-09T13:53:46.284Z,23.30
2023-01-09T13:54:53.830Z,17.80
2023-01-09T13:55:58.980Z,15.43
2023-01-09T13:57:16.396Z,26.25
2023-01-09T13:58:19.861Z,25.92
2023-01-09T13:59:28.738Z,32.35
2023-01-09T14:00:36.353Z,19.50
2023-01-09T14:01:42.638Z,16.30
2023-01-09T14:02:44.578Z,23.65
2023-01-09T14:04:14.023Z,38.13
2023-01-09T14:05:25.945Z,22.92
2023-01-09T14:06:27.733Z,32.47
2023-01-09T14:07:34.519Z,52.85
2023-01-09T14:08:36.563Z,38.40
2023-01-09T14:09:44.870Z,27.92
2023-01-09T14:11:13.897Z,28.27
2023-01-09T14:12:16.670Z,22.75
2023-01-09T14:13:22.798Z,23.38
2023-01-09T14:14:30.576Z,25.20
2023-01-09T14:15:38.911Z,21.07
2023-01-09T14:16:40.691Z,21.20
2023-01-09T14:17:42.521Z,29.15
2023-01-09T14:18:53.355Z,35.65
2023-01-09T14:19:58.278Z,23.38
2023-01-09T14:21:04.448Z,18.38